createdAt,value
2023-02-08T00:01:07.384Z,9.93
2023-02-08T00:03:39.992Z,9.68
2023-02-08T00:06:13.239Z,19.92
2023-02-08T00:08:46.151Z,11.02
2023-02-08T00:11:19.103Z,8.60
2023-02-08T00:13:51.772Z,8.80
2023-02-08T00:16:24.634Z,9.40
2023-02-08T00:18:57.508Z,8.95
2023-02-08T00:21:30.661Z,8.23
2023-02-08T00:24:03.192Z,9.90
2023-02-08T00:26:36.079Z,9.35
2023-02-08T00:29:08.791Z,8.63
2023-02-08T00:31:42.127Z,8.25
2023-02-08T00:34:14.722Z,9.25
2023-02-08T00:36:48.894Z,10.05
2023-02-08T00:39:21.777Z,9.27
2023-02-08T00:41:54.624Z,9.43
2023-02-08T00:44:27.221Z,9.25
2023-02-08T00:47:00.096Z,11.38
2023-02-08T00:49:32.616Z,9.18
2023-02-08T00:52:05.946Z,8.57
2023-02-08T00:54:38.643Z,9.23
2023-02-08T00:57:12.033Z,8.30
2023-02-08T00:59:45.380Z,9.27
2023-02-08T01:02:18.483Z,8.73
2023-02-08T01:04:51.122Z,9.05
2023-02-08T01:07:24.163Z,10.45
2023-02-08T01:09:56.959Z,10.15
2023-02-08T01:12:29.828Z,9.60
2023-02-08T01:15:02.407Z,8.93
2023-02-08T01:17:35.280Z,9.60
2023-02-08T01:20:08.003Z,8.80
2023-02-08T01:22:42.472Z,9.13
2023-02-08T01:25:15.253Z,10.38
2023-02-08T01:27:48.217Z,10.60
2023-02-08T01:30:20.780Z,9.50
2023-02-08T01:32:54.683Z,15.35
2023-02-08T01:35:27.229Z,13.18
2023-02-08T01:38:00.106Z,8.60
2023-02-08T01:40:32.984Z,8.80
2023-02-08T01:43:06.955Z,11.68
2023-02-08T01:45:39.498Z,8.77
2023-02-08T01:48:17.888Z,9.27
2023-02-08T01:51:01.019Z,10.43
2023-02-08T01:53:36.739Z,10.02
2023-02-08T01:56:11.522Z,9.45
2023-02-08T01:58:47.323Z,11.50
2023-02-08T02:01:24.200Z,11.27
2023-02-08T02:03:58.511Z,12.07
2023-02-08T02:06:38.596Z,13.57
2023-02-08T02:09:25.095Z,12.38
2023-02-08T02:11:58.257Z,14.13
2023-02-08T02:14:32.673Z,15.07
2023-02-08T02:17:09.973Z,12.18
2023-02-08T02:19:45.991Z,13.32
2023-02-08T02:22:31.482Z,15.05
2023-02-08T02:25:12.418Z,13.13
2023-02-08T02:28:15.759Z,13.48
2023-02-08T02:30:48.699Z,13.27
2023-02-08T02:33:40.187Z,13.35
2023-02-08T02:36:19.287Z,15.63
2023-02-08T02:38:57.457Z,15.93
2023-02-08T02:41:57.052Z,15.32
2023-02-08T02:44:39.342Z,14.02
2023-02-08T02:47:20.392Z,17.20
2023-02-08T02:50:13.094Z,14.40
2023-02-08T02:53:00.587Z,12.00
2023-02-08T02:55:39.169Z,11.52
2023-02-08T02:58:13.964Z,12.27
2023-02-08T03:00:52.140Z,12.70
2023-02-08T03:03:28.061Z,11.65
2023-02-08T03:06:15.220Z,13.45
2023-02-08T03:09:00.399Z,14.75
2023-02-08T03:11:35.559Z,12.52
2023-02-08T03:14:13.465Z,13.05
2023-02-08T03:16:56.676Z,13.95
2023-02-08T03:19:32.582Z,12.02
2023-02-08T03:22:17.342Z,13.18
2023-02-08T03:24:54.728Z,16.73
2023-02-08T03:27:41.712Z,15.38
2023-02-08T03:30:20.897Z,15.63
2023-02-08T03:33:02.753Z,16.67
2023-02-08T03:35:50.686Z,14.95
2023-02-08T03:38:30.076Z,14.68
2023-02-08T03:41:05.758Z,13.85
2023-02-08T03:43:46.998Z,14.82
2023-02-08T03:46:27.968Z,14.77
2023-02-08T03:49:08.264Z,14.23
2023-02-08T03:51:43.972Z,14.90
2023-02-08T03:54:18.836Z,13.55
2023-02-08T03:57:02.605Z,14.30
2023-02-08T03:59:41.362Z,14.93
2023-02-08T04:02:16.706Z,13.60
2023-02-08T04:04:50.704Z,15.70
2023-02-08T04:07:23.587Z,13.85
2023-02-08T04:09:56.130Z,15.60
2023-02-08T04:12:28.988Z,13.35
2023-02-08T04:15:01.588Z,13.50
2023-02-08T04:17:35.795Z,14.38
2023-02-08T04:20:13.228Z,15.48
2023-02-08T04:22:46.099Z,13.38
2023-02-08T04:25:19.266Z,14.55
2023-02-08T04:27:52.219Z,14.98
2023-02-08T04:30:24.712Z,13.70
2023-02-08T04:32:58.658Z,13.45
2023-02-08T04:35:31.306Z,18.13
2023-02-08T04:38:05.513Z,21.55
2023-02-08T04:40:42.557Z,19.80
2023-02-08T04:43:15.540Z,17.98
2023-02-08T04:45:50.039Z,19.52
2023-02-08T04:48:22.951Z,18.17
2023-02-08T04:50:56.995Z,15.50
2023-02-08T04:53:30.019Z,14.23
2023-02-08T04:56:02.513Z,14.75
2023-02-08T04:58:39.296Z,15.38
2023-02-08T05:01:18.452Z,15.45
2023-02-08T05:03:51.769Z,14.90
2023-02-08T05:06:24.343Z,14.48
2023-02-08T05:08:57.323Z,15.48
2023-02-08T05:11:29.905Z,13.90
2023-02-08T05:14:03.172Z,13.35
2023-02-08T05:16:39.051Z,13.55
2023-02-08T05:19:13.972Z,14.23
2023-02-08T05:21:46.430Z,14.55
2023-02-08T05:24:19.362Z,15.90
2023-02-08T05:26:52.065Z,14.93
2023-02-08T05:29:25.098Z,13.70
2023-02-08T05:31:57.636Z,13.35
2023-02-08T05:34:30.507Z,13.63
2023-02-08T05:37:03.062Z,16.23
2023-02-08T05:39:39.277Z,13.93
2023-02-08T05:42:16.107Z,13.70
2023-02-08T05:44:50.369Z,14.45
2023-02-08T05:47:22.860Z,14.32
2023-02-08T05:49:55.679Z,14.73
2023-02-08T05:52:28.241Z,13.45
2023-02-08T05:55:01.174Z,14.93
2023-02-08T05:57:35.666Z,12.93
2023-02-08T06:00:13.081Z,13.25
2023-02-08T06:02:49.370Z,15.50
2023-02-08T06:05:22.764Z,14.45
2023-02-08T06:07:55.298Z,14.40
2023-02-08T06:10:28.238Z,15.38
2023-02-08T06:13:01.841Z,14.85
2023-02-08T06:15:34.802Z,13.82
2023-02-08T06:18:08.338Z,13.68
2023-02-08T06:20:41.640Z,12.88
2023-02-08T06:23:14.374Z,12.75
2023-02-08T06:25:47.208Z,13.43
2023-02-08T06:28:19.738Z,13.95
2023-02-08T06:30:52.870Z,13.95
2023-02-08T06:33:25.612Z,13.63
2023-02-08T06:35:58.605Z,13.50
2023-02-08T06:38:31.077Z,13.50
2023-02-08T06:41:04.006Z,12.85
2023-02-08T06:43:36.613Z,14.25
2023-02-08T06:46:09.868Z,14.00
2023-02-08T06:48:42.356Z,14.40
2023-02-08T06:51:15.183Z,15.80
2023-02-08T06:53:47.745Z,14.68
2023-02-08T06:56:20.747Z,15.27
2023-02-08T06:58:53.474Z,15.70
2023-02-08T07:01:26.343Z,15.48
2023-02-08T07:03:58.896Z,13.27
2023-02-08T07:06:32.122Z,15.82
2023-02-08T07:09:04.832Z,18.88
2023-02-08T07:11:37.680Z,13.85
2023-02-08T07:14:12.765Z,12.95
2023-02-08T07:16:45.596Z,16.98
2023-02-08T07:19:18.143Z,14.27
2023-02-08T07:21:51.029Z,17.70
2023-02-08T07:24:24.025Z,17.02
2023-02-08T07:26:57.144Z,13.23
2023-02-08T07:29:30.668Z,16.02
2023-02-08T07:32:04.770Z,17.88
2023-02-08T07:34:38.199Z,15.00
2023-02-08T07:37:11.076Z,14.43
2023-02-08T07:39:43.933Z,14.15
2023-02-08T07:42:17.061Z,14.70
2023-02-08T07:45:00.245Z,15.23
2023-02-08T07:47:33.113Z,16.38
2023-02-08T07:50:05.724Z,15.15
2023-02-08T07:52:38.637Z,14.85
2023-02-08T07:55:12.130Z,14.70
2023-02-08T07:57:45.281Z,13.00
2023-02-08T08:00:18.778Z,14.18
2023-02-08T08:02:51.970Z,12.63
2023-02-08T08:05:24.601Z,14.18
2023-02-08T08:07:57.433Z,13.15
2023-02-08T08:10:30.435Z,14.48
2023-02-08T08:13:03.299Z,13.13
2023-02-08T08:15:35.820Z,13.30
2023-02-08T08:18:08.866Z,13.77
2023-02-08T08:20:41.674Z,13.13
2023-02-08T08:23:16.443Z,14.27
2023-02-08T08:25:48.968Z,12.98
2023-02-08T08:28:21.950Z,14.40
2023-02-08T08:30:54.709Z,13.60
2023-02-08T08:33:27.749Z,13.07
2023-02-08T08:36:00.358Z,12.75
2023-02-08T08:38:33.230Z,15.13
2023-02-08T08:41:15.036Z,13.73
2023-02-08T08:43:48.684Z,14.05
2023-02-08T08:46:24.574Z,14.50
2023-02-08T08:48:58.265Z,14.73
2023-02-08T08:51:35.471Z,16.73
2023-02-08T08:54:08.389Z,13.30
2023-02-08T08:56:40.874Z,15.45
2023-02-08T08:59:14.135Z,13.63
2023-02-08T09:01:47.546Z,15.40
2023-02-08T09:04:23.094Z,16.60
2023-02-08T09:06:55.795Z,17.60
2023-02-08T09:09:28.672Z,14.73
2023-02-08T09:12:01.543Z,15.23
2023-02-08T09:14:34.482Z,14.30
2023-02-08T09:17:06.952Z,15.23
2023-02-08T09:19:40.904Z,15.85
2023-02-08T09:22:13.950Z,12.45
2023-02-08T09:24:46.947Z,14.18
2023-02-08T09:27:19.527Z,13.40
2023-02-08T09:29:52.462Z,15.40
2023-02-08T09:32:24.976Z,14.18
2023-02-08T09:34:58.090Z,13.35
2023-02-08T09:37:30.530Z,11.23
2023-02-08T09:40:03.544Z,15.35
2023-02-08T09:42:49.968Z,13.13
2023-02-08T09:45:23.008Z,12.00
2023-02-08T09:48:14.965Z,13.32
2023-02-08T09:50:51.518Z,12.48
2023-02-08T09:53:35.542Z,14.43
2023-02-08T09:56:11.859Z,14.88
2023-02-08T09:58:46.016Z,14.35
2023-02-08T10:01:24.565Z,15.32
2023-02-08T10:03:59.595Z,13.88
2023-02-08T10:06:32.526Z,13.73
2023-02-08T10:09:07.432Z,13.77
2023-02-08T10:11:48.353Z,13.13
2023-02-08T10:14:23.619Z,14.05
2023-02-08T10:17:02.689Z,12.02
2023-02-08T10:19:44.474Z,14.20
2023-02-08T10:22:20.237Z,12.55
2023-02-08T10:25:06.407Z,12.75
2023-02-08T10:27:42.048Z,16.27
2023-02-08T10:30:50.209Z,11.95
2023-02-08T10:33:43.420Z,12.88
2023-02-08T10:36:19.065Z,12.20
2023-02-08T10:38:53.576Z,13.40
2023-02-08T10:41:28.688Z,12.20
2023-02-08T10:44:01.804Z,12.70
2023-02-08T10:46:34.265Z,11.82
2023-02-08T10:49:15.725Z,11.73
2023-02-08T10:51:48.329Z,11.82
2023-02-08T10:54:21.341Z,12.65
2023-02-08T10:57:03.403Z,9.95
2023-02-08T10:59:42.844Z,11.43
2023-02-08T11:02:23.701Z,11.52
2023-02-08T11:05:05.077Z,13.50
2023-02-08T11:07:37.605Z,11.13
2023-02-08T11:10:19.654Z,11.88
2023-02-08T11:15:26.442Z,12.15
2023-02-08T11:18:01.078Z,14.27
2023-02-08T11:20:37.025Z,14.80
2023-02-08T11:23:24.132Z,11.50
2023-02-08T11:26:25.877Z,13.70
2023-02-08T11:29:04.780Z,11.93
2023-02-08T11:31:38.118Z,12.75
2023-02-08T11:34:13.483Z,18.02
2023-02-08T11:36:47.341Z,10.65
2023-02-08T11:39:28.871Z,17.73
2023-02-08T11:44:36.318Z,11.93
2023-02-08T11:47:11.129Z,12.50
2023-02-08T11:49:45.191Z,11.77
2023-02-08T11:52:22.562Z,18.08
2023-02-08T11:54:56.373Z,14.30
2023-02-08T11:57:29.243Z,10.52
2023-02-08T12:00:31.951Z,12.20
2023-02-08T12:03:20.411Z,10.02
2023-02-08T12:06:11.763Z,8.82
2023-02-08T12:09:00.687Z,9.85
2023-02-08T12:11:41.779Z,10.50
2023-02-08T12:14:35.371Z,11.88
2023-02-08T12:17:07.968Z,9.38
2023-02-08T12:19:59.444Z,10.05
2023-02-08T12:22:32.148Z,9.43
2023-02-08T12:25:16.994Z,8.68
2023-02-08T12:27:49.479Z,7.97
2023-02-08T12:30:31.490Z,8.88
2023-02-08T12:33:22.882Z,9.63
2023-02-08T12:36:04.051Z,10.35
2023-02-08T12:39:01.682Z,8.73
2023-02-08T12:41:54.397Z,9.52
2023-02-08T12:44:39.181Z,9.25
2023-02-08T12:47:30.397Z,11.98
2023-02-08T12:50:09.602Z,10.10
2023-02-08T12:52:44.640Z,10.05
2023-02-08T12:55:35.956Z,10.43
2023-02-08T12:58:29.816Z,12.27
2023-02-08T13:01:05.897Z,9.90
2023-02-08T13:03:52.376Z,11.75
2023-02-08T13:06:30.030Z,11.40
2023-02-08T13:09:16.338Z,11.73
2023-02-08T13:11:57.910Z,11.27
2023-02-08T13:17:13.057Z,11.00
2023-02-08T13:19:59.802Z,11.90
2023-02-08T13:22:37.614Z,11.35
2023-02-08T13:25:15.742Z,13.32
2023-02-08T13:27:48.409Z,11.40
2023-02-08T13:30:22.432Z,15.68
2023-02-08T13:32:55.261Z,12.27
2023-02-08T13:35:29.573Z,14.38
2023-02-08T13:38:06.569Z,15.27
2023-02-08T13:40:39.505Z,12.10
2023-02-08T13:43:36.126Z,15.00
2023-02-08T13:46:11.429Z,21.20
2023-02-08T13:48:54.135Z,18.98
2023-02-08T13:51:33.069Z,13.32
2023-02-08T13:54:10.234Z,15.45
2023-02-08T13:56:47.019Z,14.73
2023-02-08T13:59:28.458Z,12.55
2023-02-08T14:04:35.154Z,21.23
2023-02-08T14:07:20.399Z,15.93
2023-02-08T14:10:03.199Z,10.23
2023-02-08T14:12:52.051Z,11.90
2023-02-08T14:15:25.974Z,16.63
2023-02-08T14:18:00.256Z,15.48
2023-02-08T14:20:32.833Z,16.00
2023-02-08T14:23:22.619Z,21.90
2023-02-08T14:25:56.752Z,14.48
2023-02-08T14:28:32.411Z,11.40
2023-02-08T14:31:07.633Z,12.48
2023-02-08T14:33:43.247Z,13.60
2023-02-08T14:36:29.406Z,14.93
2023-02-08T14:39:07.692Z,15.50
2023-02-08T14:41:43.629Z,14.65
2023-02-08T14:44:35.208Z,11.23
2023-02-08T14:47:12.388Z,12.20
2023-02-08T14:49:45.789Z,13.18
2023-02-08T14:52:22.460Z,13.52
2023-02-08T14:55:05.138Z,13.43
2023-02-08T14:57:37.954Z,13.40
2023-02-08T15:00:37.210Z,14.23
2023-02-08T15:03:14.547Z,12.93
2023-02-08T15:06:06.094Z,14.57
2023-02-08T15:08:38.649Z,16.80
2023-02-08T15:11:30.842Z,16.27
2023-02-08T15:14:04.969Z,17.23
2023-02-08T15:16:42.782Z,13.23
2023-02-08T15:19:29.593Z,15.43
2023-02-08T15:22:25.327Z,13.98
2023-02-08T15:25:20.300Z,15.77
2023-02-08T15:28:00.148Z,33.63
2023-02-08T15:30:35.797Z,23.33
2023-02-08T15:33:10.686Z,24.58
2023-02-08T15:35:43.767Z,18.77
2023-02-08T15:38:21.406Z,30.25
2023-02-08T15:41:05.493Z,26.88
2023-02-08T15:43:39.058Z,32.72
2023-02-08T15:46:17.791Z,26.63
2023-02-08T15:48:51.119Z,27.85
2023-02-08T15:51:24.644Z,28.33
2023-02-08T15:53:57.798Z,27.52
2023-02-08T15:56:38.600Z,25.17
2023-02-08T15:59:17.408Z,26.45
2023-02-08T16:01:50.323Z,19.45
2023-02-08T16:04:23.994Z,26.20
2023-02-08T16:06:57.408Z,20.80
2023-02-08T16:09:30.618Z,22.85
2023-02-08T16:12:03.232Z,23.00
2023-02-08T16:14:52.248Z,23.02
2023-02-08T16:17:45.227Z,24.83
2023-02-08T16:20:28.656Z,26.83
2023-02-08T16:23:22.452Z,24.30
2023-02-08T16:25:56.459Z,21.20
2023-02-08T16:28:30.415Z,19.50
2023-02-08T16:31:04.333Z,20.30
2023-02-08T16:33:39.778Z,20.75
2023-02-08T16:36:22.557Z,20.13
2023-02-08T16:39:24.768Z,20.40
2023-02-08T16:42:13.865Z,23.92
2023-02-08T16:44:59.302Z,23.33
2023-02-08T16:47:36.339Z,26.10
2023-02-08T16:50:10.409Z,34.15
2023-02-08T16:52:43.422Z,23.13
2023-02-08T16:55:17.927Z,21.67
2023-02-08T16:57:54.947Z,64.35
2023-02-08T17:00:29.527Z,48.38
2023-02-08T17:03:02.760Z,47.83
2023-02-08T17:05:36.827Z,40.78
2023-02-08T17:08:15.255Z,32.92
2023-02-08T17:10:52.076Z,41.03
2023-02-08T17:13:28.953Z,32.95
2023-02-08T17:16:01.665Z,29.75
2023-02-08T17:18:35.070Z,24.27
2023-02-08T17:21:10.545Z,56.10
2023-02-08T17:23:47.028Z,44.03
2023-02-08T17:26:22.608Z,40.20
2023-02-08T17:28:56.458Z,33.15
2023-02-08T17:31:31.832Z,29.52
2023-02-08T17:34:04.832Z,41.33
2023-02-08T17:36:40.610Z,35.20
2023-02-08T17:39:15.390Z,31.98
2023-02-08T17:41:47.847Z,40.28
2023-02-08T17:44:20.935Z,27.02
2023-02-08T17:46:53.546Z,32.28
2023-02-08T17:49:26.584Z,36.33
2023-02-08T17:51:59.099Z,38.25
2023-02-08T17:54:31.925Z,33.13
2023-02-08T17:57:04.429Z,34.55
2023-02-08T17:59:39.441Z,27.90
2023-02-08T18:02:11.987Z,28.15
2023-02-08T18:04:45.048Z,25.48
2023-02-08T18:07:17.579Z,27.23
2023-02-08T18:09:50.457Z,25.83
2023-02-08T18:12:22.940Z,26.00
2023-02-08T18:14:55.889Z,27.25
2023-02-08T18:17:29.029Z,28.20
2023-02-08T18:20:01.940Z,31.40
2023-02-08T18:22:34.829Z,30.88
2023-02-08T18:25:09.947Z,30.65
2023-02-08T18:27:42.476Z,28.42
2023-02-08T18:30:15.430Z,28.25
2023-02-08T18:32:47.947Z,31.42
2023-02-08T18:35:21.344Z,28.02
2023-02-08T18:37:54.050Z,30.38
2023-02-08T18:40:26.966Z,34.83
2023-02-08T18:42:59.498Z,32.22
2023-02-08T18:45:32.526Z,34.25
2023-02-08T18:48:05.549Z,34.72
2023-02-08T18:50:38.697Z,37.92
2023-02-08T18:53:11.129Z,41.88
2023-02-08T18:55:52.047Z,41.83
2023-02-08T18:58:24.716Z,37.50
2023-02-08T19:01:05.252Z,36.97
2023-02-08T19:03:38.246Z,39.60
2023-02-08T19:06:15.063Z,40.17
2023-02-08T19:08:47.667Z,39.45
2023-02-08T19:11:21.951Z,36.45
2023-02-08T19:13:56.407Z,35.95
2023-02-08T19:16:32.946Z,41.13
2023-02-08T19:19:06.189Z,32.95
2023-02-08T19:21:39.194Z,32.00
2023-02-08T19:24:14.996Z,31.38
2023-02-08T19:26:48.677Z,33.15
2023-02-08T19:29:22.849Z,27.73
2023-02-08T19:31:58.156Z,27.08
2023-02-08T19:34:30.971Z,27.73
2023-02-08T19:37:03.816Z,28.27
2023-02-08T19:39:36.404Z,25.65
2023-02-08T19:42:09.305Z,24.05
2023-02-08T19:44:42.164Z,27.88
2023-02-08T19:47:15.102Z,27.60
2023-02-08T19:49:47.695Z,23.02
2023-02-08T19:52:21.600Z,27.55
2023-02-08T19:54:54.398Z,26.58
2023-02-08T19:57:27.322Z,30.90
2023-02-08T19:59:59.786Z,28.75
2023-02-08T20:02:32.713Z,29.00
2023-02-08T20:05:05.531Z,29.20
2023-02-08T20:07:38.476Z,27.38
2023-02-08T20:10:11.326Z,30.13
2023-02-08T20:12:44.187Z,28.73
2023-02-08T20:15:16.696Z,29.00
2023-02-08T20:17:49.488Z,24.70
2023-02-08T20:20:22.030Z,25.20
2023-02-08T20:22:54.956Z,24.63
2023-02-08T20:25:27.919Z,23.35
2023-02-08T20:28:00.972Z,23.23
2023-02-08T20:30:33.490Z,25.00
2023-02-08T20:33:06.400Z,24.38
2023-02-08T20:35:38.972Z,23.88
2023-02-08T20:38:11.908Z,21.80
2023-02-08T20:40:44.684Z,22.75
2023-02-08T20:43:17.645Z,23.45
2023-02-08T20:45:50.223Z,24.38
2023-02-08T20:48:23.213Z,23.92
2023-02-08T20:50:55.729Z,23.10
2023-02-08T20:53:29.108Z,24.88
2023-02-08T20:56:05.461Z,26.77
2023-02-08T20:58:38.467Z,25.50
2023-02-08T21:01:24.790Z,25.00
2023-02-08T21:03:58.341Z,21.55
2023-02-08T21:06:32.065Z,23.75
2023-02-08T21:09:06.699Z,25.42
2023-02-08T21:11:39.568Z,24.73
2023-02-08T21:14:15.807Z,23.10
2023-02-08T21:16:49.657Z,24.23
2023-02-08T21:19:23.288Z,27.08
2023-02-08T21:21:57.378Z,23.85
2023-02-08T21:24:31.188Z,24.27
2023-02-08T21:27:04.648Z,24.30
2023-02-08T21:29:37.766Z,25.10
2023-02-08T21:32:10.382Z,24.75
2023-02-08T21:34:43.682Z,21.50
2023-02-08T21:37:16.274Z,24.15
2023-02-08T21:39:49.133Z,24.63
2023-02-08T21:42:21.672Z,26.80
2023-02-08T21:44:54.635Z,28.27
2023-02-08T21:47:27.118Z,26.00
2023-02-08T21:50:18.481Z,28.45
2023-02-08T21:53:09.534Z,22.80
2023-02-08T21:55:48.648Z,24.20
2023-02-08T21:58:21.133Z,23.95
2023-02-08T22:00:54.107Z,25.63
2023-02-08T22:03:27.234Z,25.10
2023-02-08T22:06:18.702Z,25.17
2023-02-08T22:08:51.220Z,24.40
2023-02-08T22:11:24.127Z,23.83
2023-02-08T22:13:56.638Z,22.15
2023-02-08T22:16:29.620Z,23.75
2023-02-08T22:19:02.128Z,22.63
2023-02-08T22:21:35.319Z,21.10
2023-02-08T22:24:07.902Z,22.95
2023-02-08T22:26:40.880Z,24.63
2023-02-08T22:29:14.466Z,22.50
2023-02-08T22:31:47.452Z,20.48
2023-02-08T22:34:20.302Z,24.40
2023-02-08T22:36:54.052Z,28.92
2023-02-08T22:39:26.529Z,29.80
2023-02-08T22:41:59.436Z,31.02
2023-02-08T22:44:31.989Z,32.42
2023-02-08T22:47:06.774Z,35.67
2023-02-08T22:49:39.373Z,35.97
2023-02-08T22:52:12.363Z,34.22
2023-02-08T22:54:45.311Z,29.75
2023-02-08T22:57:18.579Z,33.00
2023-02-08T22:59:51.137Z,32.50
2023-02-08T23:02:24.734Z,34.38
2023-02-08T23:04:57.411Z,35.13
2023-02-08T23:07:30.217Z,34.67
2023-02-08T23:10:03.363Z,29.77
2023-02-08T23:12:36.215Z,25.90
2023-02-08T23:15:10.512Z,30.80
2023-02-08T23:17:43.608Z,28.15
2023-02-08T23:20:16.097Z,23.50
2023-02-08T23:22:48.937Z,28.52
2023-02-08T23:25:21.905Z,25.80
2023-02-08T23:27:54.709Z,27.17
2023-02-08T23:30:27.350Z,26.08
2023-02-08T23:33:00.348Z,24.33
2023-02-08T23:35:35.952Z,28.15
2023-02-08T23:38:09.426Z,23.40
2023-02-08T23:40:42.043Z,30.25
2023-02-08T23:43:14.969Z,23.10
2023-02-08T23:45:47.429Z,27.77
2023-02-08T23:48:20.367Z,24.67
2023-02-08T23:50:59.447Z,26.45
2023-02-08T23:53:32.866Z,28.17
2023-02-08T23:56:08.451Z,27.92
2023-02-08T23:58:41.973Z,26.98
